This is the latest recevied weather packets stored in our database for station/object SP3VBV-2. If no packets are shown the sender has not sent any weather packets the latest 10 day(s).
| Time | Temp. | Humidity | Pressure | Rain* | Wind** | Luminosity | Snow |
|---|---|---|---|---|---|---|---|
| 1777957319 | 16.67° C | 44% | 1008.9 hPa | - | - | - | - |
| 1777956119 | 16.67° C | 43% | 1008.9 hPa | - | - | - | - |
| 1777955519 | 16.67° C | 43% | 1008.8 hPa | - | - | - | - |
| 1777954330 | 16.67° C | 43% | 1008.9 hPa | - | - | - | - |
| 1777953126 | 16.11° C | 43% | 1009 hPa | - | - | - | - |
| 1777952526 | 16.11° C | 44% | 1009 hPa | - | - | - | - |
| 1777951926 | 16.11° C | 45% | 1009.1 hPa | - | - | - | - |
| 1777951326 | 15.56° C | 46% | 1009 hPa | - | - | - | - |
| 1777950725 | 15.56° C | 46% | 1009.1 hPa | - | - | - | - |
| 1777950127 | 15.56° C | 46% | 1009.1 hPa | - | - | - | - |
| 1777949526 | 15.56° C | 48% | 1009.2 hPa | - | - | - | - |
| 1777948927 | 15° C | 49% | 1009.3 hPa | - | - | - | - |
| 1777948326 | 14.44° C | 52% | 1009.4 hPa | - | - | - | - |
| 1777947726 | 14.44° C | 53% | 1009.4 hPa | - | - | - | - |
| 1777947126 | 14.44° C | 53% | 1009.5 hPa | - | - | - | - |
| 1777946526 | 14.44° C | 54% | 1009.6 hPa | - | - | - | - |
| 1777945926 | 14.44° C | 56% | 1009.6 hPa | - | - | - | - |
| 1777945326 | 13.89° C | 61% | 1009.6 hPa | - | - | - | - |
| 1777944726 | 13.33° C | 67% | 1009.7 hPa | - | - | - | - |
| 1777944126 | 13.33° C | 72% | 1009.6 hPa | - | - | - | - |
| 1777943526 | 12.78° C | 76% | 1009.7 hPa | - | - | - | - |
| 1777942926 | 13.89° C | 71% | 1009.8 hPa | - | - | - | - |
| 1777942330 | 14.44° C | 69% | 1009.8 hPa | - | - | - | - |
| 1777941726 | 14.44° C | 69% | 1009.8 hPa | - | - | - | - |
| 1777941126 | 14.44° C | 68% | 1009.9 hPa | - | - | - | - |
* Rain since midnight (hover to see other rain measurements)
** Current wind speed in m/s (hover to see current wind gust speed)